TMW weather

Tamworth Airport
Tamworth, New South Wales, Australia

Public forecast

Using degrees Celsius for public forecast. Weather courtesy of forecast.io.

METAR (pilot weather report)

Retrieved 2018/07/20 19:30 UTC (6 minutes ago):

YSTW 201930Z AUTO 11005KT 9999 // NCD M02/M05 Q1022 RF00.0/000.0

TAF (pilot weather forecast)

Retrieved 2018/07/20 18:36 UTC (1 hour ago):

TAF TAF YSTW 201646Z 2018/2112 VRB03KT CAVOK BECMG 2101/2102 24010KT CAVOK BECMG 2107/2108 VRB03KT CAVOK